Time;durP1;ratioP1;P1;durP2;ratioP2;P2;SDS_P1;SDS_P2;PMS_P1;PMS_P2;Temp;Humidity;BMP_temperature;BMP_pressure;BME280_temperature;BME280_humidity;BME280_pressure;Samples;Min_cycle;Max_cycle;Signal;HPM_P1;HPM_P2
2022/02/02 00:04:51;;;;;;;;;5.00;5.00;;;;;11.24;83.44;101834.13;5074494;27;45501;-83
2022/02/02 00:09:52;;;;;;;;;6.00;6.00;;;;;11.19;83.18;101806.25;5070509;27;45303;-83
2022/02/02 00:12:23;;;;;;;;;3.67;3.67;;;;;11.20;82.87;101826.59;5068459;27;45609;-83
2022/02/02 00:17:19;;;;;;;;;4.67;3.00;;;;;11.24;82.94;101820.81;5075908;27;45308;-83
2022/02/02 00:19:57;;;;;;;;;5.00;5.00;;;;;11.26;82.69;101828.63;5096014;27;45556;-83
2022/02/02 00:22:28;;;;;;;;;5.67;4.67;;;;;11.35;82.74;101841.00;5067947;28;46058;-83
2022/02/02 00:25:05;;;;;;;;;8.00;6.00;;;;;11.31;82.75;101836.16;5069879;28;45543;-83
2022/02/02 00:27:31;;;;;;;;;6.67;6.00;;;;;11.27;82.87;101824.13;5069524;28;45351;-82
2022/02/02 00:30:01;;;;;;;;;3.67;3.33;;;;;11.38;82.65;101839.91;5070103;28;45543;-84
2022/02/02 00:32:46;;;;;;;;;3.33;3.00;;;;;11.39;82.45;101840.72;5064230;28;48154;-82
2022/02/02 00:35:15;;;;;;;;;4.00;3.33;;;;;11.30;82.51;101826.50;5070173;28;45415;-83
2022/02/02 00:37:41;;;;;;;;;3.67;3.33;;;;;11.22;82.38;101817.44;5070117;28;45320;-82
2022/02/02 00:40:07;;;;;;;;;5.33;3.00;;;;;11.29;82.72;101824.84;5075608;28;47022;-82
2022/02/02 00:42:32;;;;;;;;;4.67;4.67;;;;;11.36;82.73;101836.53;5071288;28;45872;-82
2022/02/02 00:44:58;;;;;;;;;2.00;2.00;;;;;11.34;82.77;101841.16;5059733;28;45242;-83
2022/02/02 00:47:25;;;;;;;;;4.00;4.00;;;;;11.33;82.61;101842.16;5069169;27;45315;-83
2022/02/02 00:49:52;;;;;;;;;5.00;5.00;;;;;11.33;82.73;101836.84;5076310;28;47127;-82
2022/02/02 00:52:19;;;;;;;;;4.00;4.00;;;;;11.24;82.53;101836.78;5068919;28;45499;-83
2022/02/02 00:54:47;;;;;;;;;4.00;3.33;;;;;11.21;82.74;101826.44;5070478;27;45295;-83
2022/02/02 00:57:12;;;;;;;;;2.33;2.33;;;;;11.22;82.87;101828.09;5067304;28;45272;-83
2022/02/02 00:59:38;;;;;;;;;6.67;5.33;;;;;11.22;82.51;101825.44;5068999;27;45431;-82
2022/02/02 01:02:03;;;;;;;;;3.00;2.00;;;;;11.31;82.47;101844.97;5073571;27;45347;-83
2022/02/02 01:04:29;;;;;;;;;8.33;6.00;;;;;11.22;82.71;101836.09;5065935;27;45330;-82
2022/02/02 01:10:06;;;;;;;;;6.00;5.00;;;;;11.22;82.51;101836.09;5060746;28;45378;-82
2022/02/02 01:18:14;;;;;;;;;7.00;3.67;;;;;11.21;82.67;101834.41;5071617;27;45209;-84
2022/02/02 01:28:38;;;;;;;;;5.00;3.33;;;;;11.19;83.05;101841.69;5067703;28;45471;-83
2022/02/02 01:31:04;;;;;;;;;8.00;7.00;;;;;11.23;82.83;101848.38;5069038;27;45532;-83
2022/02/02 01:33:30;;;;;;;;;3.33;3.00;;;;;11.18;82.85;101847.16;5069401;28;47738;-82
2022/02/02 01:35:56;;;;;;;;;5.67;5.00;;;;;11.14;83.18;101851.13;5069393;28;45374;-83
2022/02/02 01:38:24;;;;;;;;;9.00;7.67;;;;;11.11;82.77;101844.28;5069101;28;45425;-83
2022/02/02 01:40:55;;;;;;;;;5.00;4.00;;;;;11.04;83.11;101832.59;5069101;27;45393;-82
2022/02/02 01:43:26;;;;;;;;;6.00;6.00;;;;;11.16;82.76;101854.50;5061913;28;45311;-84
2022/02/02 01:45:59;;;;;;;;;6.00;5.00;;;;;11.15;83.09;101843.00;5070598;28;45477;-83
2022/02/02 01:48:35;;;;;;;;;5.00;5.00;;;;;11.02;83.43;101835.41;5075602;28;45379;-85
2022/02/02 01:53:56;;;;;;;;;6.67;5.67;;;;;11.05;83.18;101847.56;5070390;28;45985;-83
2022/02/02 01:56:21;;;;;;;;;7.33;5.00;;;;;11.05;83.34;101844.88;5070191;28;45660;-82
2022/02/02 01:59:21;;;;;;;;;3.67;3.33;;;;;10.98;83.18;101840.16;5068170;28;45428;-84
2022/02/02 02:01:46;;;;;;;;;4.00;3.67;;;;;10.99;83.69;101839.16;5067409;28;45523;-84
2022/02/02 02:04:11;;;;;;;;;5.00;4.00;;;;;10.88;83.44;101834.06;5069825;28;48266;-82
2022/02/02 02:06:37;;;;;;;;;7.00;5.33;;;;;11.02;83.47;101846.03;5069101;28;45354;-83
2022/02/02 02:09:02;;;;;;;;;4.33;4.33;;;;;11.05;83.58;101852.88;5067335;27;45791;-83
2022/02/02 02:11:28;;;;;;;;;4.67;4.33;;;;;10.91;83.42;101839.09;5089817;27;46534;-83
2022/02/02 02:16:27;;;;;;;;;6.33;5.00;;;;;10.92;83.62;101846.06;5076413;27;45463;-83
2022/02/02 02:18:53;;;;;;;;;7.00;6.00;;;;;10.89;83.65;101843.72;5095149;27;45502;-83
2022/02/02 02:21:19;;;;;;;;;7.00;5.67;;;;;10.91;83.63;101849.72;5079951;27;45473;-83
2022/02/02 02:23:47;;;;;;;;;7.00;6.00;;;;;10.91;83.65;101841.75;5071404;28;45365;-84
2022/02/02 02:26:21;;;;;;;;;5.33;5.33;;;;;11.01;83.76;101868.28;5071530;27;45292;-82
2022/02/02 02:29:16;;;;;;;;;6.00;6.00;;;;;10.93;83.68;101860.22;5064947;28;45374;-83
2022/02/02 02:39:48;;;;;;;;;5.00;5.00;;;;;10.85;83.88;101843.19;5070625;28;45417;-82
2022/02/02 03:29:42;;;;;;;;;6.00;6.00;;;;;10.94;84.37;101848.59;5061305;28;45326;-83
2022/02/02 03:30:48;;;;;;;;;12.00;10.00;;;;;10.99;84.70;101839.16;5061485;28;45282;-83
2022/02/02 03:49:55;;;;;;;;;10.00;9.67;;;;;10.85;85.11;101851.16;5061108;28;45760;-82
2022/02/02 04:10:14;;;;;;;;;12.33;10.67;;;;;10.86;85.37;101852.84;5060298;28;46051;-83
2022/02/02 04:12:58;;;;;;;;;13.00;10.67;;;;;10.97;85.36;101865.09;5060767;28;45355;-82
2022/02/02 04:56:07;;;;;;;;;8.00;8.00;;;;;10.20;86.36;101858.13;5100717;27;45348;-82
2022/02/02 05:06:33;;;;;;;;;10.67;9.00;;;;;10.15;86.13;101852.38;5100409;27;45306;-81
2022/02/02 05:18:09;;;;;;;;;9.00;8.67;;;;;10.03;86.13;101842.94;5100401;27;45290;-83
2022/02/02 05:53:45;;;;;;;;;10.67;8.33;;;;;10.30;86.28;101913.06;5059196;28;45359;-81
2022/02/02 05:56:10;;;;;;;;;7.33;7.33;;;;;10.20;86.55;101895.31;5059159;28;45803;-80
2022/02/02 05:58:38;;;;;;;;;10.00;10.00;;;;;10.30;85.86;101905.91;5059385;28;45688;-81
2022/02/02 06:01:08;;;;;;;;;10.67;10.67;;;;;10.29;85.85;101901.59;5058262;28;45165;-80
2022/02/02 06:03:43;;;;;;;;;9.33;8.33;;;;;10.38;86.10;101918.47;5059316;28;45261;-81
2022/02/02 06:06:12;;;;;;;;;10.67;10.33;;;;;10.40;85.79;101913.03;5062357;28;46168;-82
2022/02/02 06:08:46;;;;;;;;;10.00;9.00;;;;;10.31;85.96;101890.81;5064103;28;45315;-81
2022/02/02 06:11:13;;;;;;;;;11.00;11.00;;;;;10.43;85.71;101924.22;5074679;27;45398;-80
2022/02/02 06:13:43;;;;;;;;;11.00;10.67;;;;;10.49;85.61;101925.47;5059117;28;45265;-80
2022/02/02 06:16:09;;;;;;;;;8.00;8.00;;;;;10.43;85.71;101910.94;5058830;28;46400;-82
2022/02/02 06:18:36;;;;;;;;;10.00;10.00;;;;;10.51;85.60;101912.06;5081805;27;46078;-82
2022/02/02 06:21:08;;;;;;;;;13.33;10.00;;;;;10.51;85.38;101914.72;5100378;27;45333;-88
2022/02/02 06:23:38;;;;;;;;;6.00;5.33;;;;;10.58;85.82;101919.31;5098561;27;46078;-82
2022/02/02 06:26:08;;;;;;;;;10.00;10.00;;;;;10.47;85.49;101898.19;5100587;27;46304;-84
2022/02/02 06:28:35;;;;;;;;;10.67;10.67;;;;;10.58;85.65;101905.16;5099656;27;45460;-86
2022/02/02 06:31:05;;;;;;;;;12.00;11.67;;;;;10.60;85.43;101916.50;5100015;27;45365;-88
2022/02/02 06:33:33;;;;;;;;;12.00;10.33;;;;;10.55;85.28;101908.97;5099587;27;45336;-87
2022/02/02 06:35:59;;;;;;;;;13.00;13.00;;;;;10.64;85.39;101925.84;5098196;27;46838;-84
2022/02/02 06:38:25;;;;;;;;;12.00;11.00;;;;;10.56;85.28;101921.25;5098369;27;45280;-84
2022/02/02 06:40:55;;;;;;;;;12.67;12.67;;;;;10.63;85.46;101928.66;5099485;27;45507;-82
2022/02/02 06:43:22;;;;;;;;;9.67;9.67;;;;;10.64;85.10;101938.31;5098249;27;46350;-82
2022/02/02 06:45:49;;;;;;;;;11.33;11.33;;;;;10.65;85.16;101938.16;5098014;27;46557;-81
2022/02/02 06:48:14;;;;;;;;;10.33;10.33;;;;;10.64;85.36;101925.84;5101335;27;45334;-81
2022/02/02 06:50:44;;;;;;;;;13.33;11.00;;;;;10.64;85.39;101923.19;5102944;27;45359;-81
2022/02/02 06:53:37;;;;;;;;;13.33;13.33;;;;;10.64;85.16;101923.19;5102968;27;45448;-82
2022/02/02 06:59:16;;;;;;;;;13.33;12.33;;;;;10.68;85.53;101929.03;5102781;27;45376;-78
2022/02/02 07:07:52;;;;;;;;;16.33;16.33;;;;;10.54;85.47;101922.41;5102983;27;45971;-82
2022/02/02 07:31:58;;;;;;;;;18.33;18.33;;;;;10.73;85.09;101972.84;5053999;28;45547;-79
2022/02/02 07:34:48;;;;;;;;;15.67;15.67;;;;;10.72;85.04;101963.19;5078465;28;45334;-80
2022/02/02 07:37:25;;;;;;;;;15.67;14.00;;;;;10.68;85.27;101959.13;5081681;27;45480;-79
2022/02/02 07:39:55;;;;;;;;;19.67;18.00;;;;;10.81;85.16;101981.91;5080409;28;47301;-78
2022/02/02 07:42:23;;;;;;;;;15.67;15.33;;;;;10.77;84.78;101967.25;5081831;28;45305;-78
2022/02/02 07:44:53;;;;;;;;;18.67;18.67;;;;;10.64;84.43;101949.78;5081026;28;45329;-82
2022/02/02 07:47:19;;;;;;;;;22.00;20.00;;;;;10.78;84.94;101975.09;5080292;27;45737;-79
2022/02/02 07:49:49;;;;;;;;;20.67;18.00;;;;;10.77;84.90;101972.56;5061005;28;47119;-80
2022/02/02 07:52:18;;;;;;;;;16.33;16.33;;;;;10.82;84.77;101972.94;5079451;28;45383;-80
2022/02/02 07:54:45;;;;;;;;;19.00;18.00;;;;;10.85;84.78;101980.63;5081495;27;45342;-80
2022/02/02 07:57:16;;;;;;;;;21.00;18.00;;;;;10.80;84.71;101967.78;5081300;27;45443;-79
2022/02/02 08:02:08;;;;;;;;;23.33;21.00;;;;;10.90;84.70;101981.06;5081170;27;45472;-78
2022/02/02 08:04:35;;;;;;;;;19.00;18.33;;;;;10.89;84.75;101981.19;5080056;28;45391;-79
2022/02/02 08:07:00;;;;;;;;;20.67;19.33;;;;;10.88;84.52;101982.16;5079932;28;46990;-79
2022/02/02 08:11:55;;;;;;;;;20.67;18.67;;;;;10.93;84.37;101993.22;5081051;27;45294;-79
2022/02/02 08:14:22;;;;;;;;;21.67;19.00;;;;;10.95;85.24;101993.91;5081220;27;45370;-78
2022/02/02 08:16:47;;;;;;;;;18.33;16.67;;;;;10.96;84.82;101995.59;5081045;27;45338;-78
2022/02/02 08:19:16;;;;;;;;;15.00;13.33;;;;;10.91;84.52;101992.50;5071269;27;47508;-80
2022/02/02 08:21:41;;;;;;;;;20.00;17.33;;;;;11.07;84.87;102010.50;5061631;28;45220;-80
2022/02/02 08:24:08;;;;;;;;;17.67;17.33;;;;;10.92;84.38;101988.91;5059420;28;45255;-79
2022/02/02 08:26:34;;;;;;;;;22.67;19.67;;;;;11.11;84.86;102018.06;5059160;28;46983;-79
2022/02/02 08:28:59;;;;;;;;;20.00;19.00;;;;;11.14;84.42;102027.59;5061026;28;45989;-79
2022/02/02 08:31:27;;;;;;;;;16.67;15.33;;;;;11.11;84.82;102019.91;5061127;28;45313;-80
2022/02/02 08:33:59;;;;;;;;;18.00;18.00;;;;;11.00;84.91;101999.63;5059432;28;45416;-78
2022/02/02 08:36:25;;;;;;;;;15.33;14.33;;;;;11.10;84.78;102019.06;5060295;28;45318;-80
2022/02/02 08:39:13;;;;;;;;;15.33;15.33;;;;;11.07;84.98;102008.69;5060298;28;45394;-79
2022/02/02 08:41:45;;;;;;;;;15.67;15.67;;;;;11.12;85.21;102021.56;5059262;28;45384;-82
2022/02/02 08:44:17;;;;;;;;;13.67;12.33;;;;;11.20;85.00;102028.81;5059456;28;45342;-79
2022/02/02 08:46:51;;;;;;;;;15.67;15.67;;;;;11.19;84.97;102019.13;5060335;28;45224;-82
2022/02/02 08:49:17;;;;;;;;;16.00;14.67;;;;;11.16;84.85;102008.81;5057738;28;47455;-81
2022/02/02 08:51:45;;;;;;;;;14.67;14.00;;;;;11.17;85.02;102011.34;5059687;28;45250;-80
2022/02/02 08:57:07;;;;;;;;;15.00;14.00;;;;;11.19;84.43;102005.84;5059840;28;45326;-82
2022/02/02 08:59:26;;;;;;;;;13.00;12.67;;;;;11.18;84.99;102013.00;5059816;28;46517;-81
2022/02/02 09:01:53;;;;;;;;;13.33;12.67;;;;;11.31;84.93;102019.81;5060110;28;45287;-80
2022/02/02 09:07:10;;;;;;;;;18.67;17.67;;;;;11.22;84.70;101990.44;5058142;28;45432;-81
2022/02/02 09:20:46;;;;;;;;;15.33;13.33;;;;;11.26;84.51;101990.97;5098671;27;45672;-81
2022/02/02 09:25:43;;;;;;;;;14.67;13.67;;;;;11.15;84.80;102001.81;5100449;27;45329;-81
2022/02/02 09:36:12;;;;;;;;;11.33;11.33;;;;;11.18;84.55;101983.72;5100277;27;45481;-80
2022/02/02 09:38:37;;;;;;;;;14.00;13.00;;;;;11.36;84.05;102009.53;5100358;27;45486;-80
2022/02/02 09:43:34;;;;;;;;;17.33;14.67;;;;;11.34;84.08;101990.22;5100184;27;45415;-80
2022/02/02 09:46:11;;;;;;;;;14.00;12.00;;;;;11.56;84.25;102006.78;5100347;27;45438;-80
2022/02/02 09:48:48;;;;;;;;;13.33;13.33;;;;;11.47;83.95;101985.38;5100113;27;45396;-81
2022/02/02 09:51:21;;;;;;;;;13.00;11.67;;;;;11.56;83.60;102006.78;5099686;27;45274;-80
2022/02/02 10:02:32;;;;;;;;;11.00;9.67;;;;;11.80;82.79;102011.53;5078125;27;45880;-80
2022/02/02 10:15:29;;;;;;;;;11.67;11.67;;;;;11.84;81.59;102026.22;5079580;27;45342;-80
2022/02/02 10:18:13;;;;;;;;;11.00;11.00;;;;;11.71;81.82;102009.78;5079488;27;45271;-80
2022/02/02 10:20:39;;;;;;;;;14.00;10.00;;;;;11.82;81.72;102030.03;5079083;27;45224;-79
2022/02/02 10:23:06;;;;;;;;;17.00;12.67;;;;;11.74;81.37;102033.44;5082440;27;45315;-80
2022/02/02 10:25:37;;;;;;;;;10.00;10.00;;;;;11.66;81.10;102023.53;5081892;28;46080;-79
2022/02/02 10:28:21;;;;;;;;;12.67;10.33;;;;;11.64;80.86;102035.31;5083080;27;45366;-82
2022/02/02 10:30:49;;;;;;;;;9.00;9.00;;;;;11.76;80.84;102054.59;5082788;28;45442;-80
2022/02/02 10:33:18;;;;;;;;;11.33;11.33;;;;;11.73;81.09;102045.91;5082786;27;45277;-81
2022/02/02 10:35:47;;;;;;;;;11.00;8.00;;;;;11.74;80.42;102044.09;5082401;27;45315;-80
2022/02/02 10:38:16;;;;;;;;;10.67;9.00;;;;;11.74;80.75;102042.25;5082717;27;46007;-80
2022/02/02 10:40:48;;;;;;;;;8.00;8.00;;;;;11.61;80.67;102013.31;5082321;27;45290;-82
2022/02/02 10:43:39;;;;;;;;;8.00;8.00;;;;;11.59;80.24;102011.81;5082451;28;46316;-80
2022/02/02 10:46:15;;;;;;;;;11.00;10.33;;;;;11.77;80.29;102046.47;5080935;28;45287;-80
2022/02/02 10:48:56;;;;;;;;;10.00;8.00;;;;;11.52;80.48;102019.53;5082723;27;45434;-81
2022/02/02 10:51:52;;;;;;;;;9.00;9.00;;;;;11.56;80.56;102028.94;5082268;28;45161;-80
2022/02/02 10:54:29;;;;;;;;;9.67;8.67;;;;;11.66;80.87;102044.84;5081773;28;46218;-80
2022/02/02 10:57:12;;;;;;;;;8.33;8.33;;;;;11.61;80.88;102047.94;5098041;27;45470;-80
2022/02/02 11:00:01;;;;;;;;;11.67;11.67;;;;;11.68;80.57;102061.50;5080950;28;45278;-79
2022/02/02 11:07:57;;;;;;;;;7.67;7.00;;;;;11.46;80.57;102033.44;5082182;28;45377;-80
2022/02/02 11:10:25;;;;;;;;;8.67;8.67;;;;;11.55;80.60;102058.38;5080825;28;45361;-81
2022/02/02 11:12:53;;;;;;;;;7.00;7.00;;;;;11.54;80.78;102060.19;5082186;27;45242;-81
2022/02/02 11:15:32;;;;;;;;;10.33;10.33;;;;;11.49;81.05;102052.63;5082070;27;45351;-82
2022/02/02 11:18:17;;;;;;;;;7.00;7.00;;;;;11.55;80.67;102056.53;5087425;27;45314;-80
2022/02/02 11:20:43;;;;;;;;;6.33;6.00;;;;;11.42;79.77;102048.88;5101036;27;45471;-79
2022/02/02 11:23:09;;;;;;;;;7.00;7.00;;;;;11.51;79.87;102063.13;5100986;27;47649;-79
2022/02/02 11:25:37;;;;;;;;;5.00;5.00;;;;;11.47;79.99;102065.25;5102114;27;45319;-80
2022/02/02 11:28:06;;;;;;;;;5.00;4.33;;;;;11.44;79.74;102062.88;5102545;27;45208;-82
2022/02/02 11:30:36;;;;;;;;;4.00;4.00;;;;;11.47;79.61;102073.22;5101485;27;45398;-81
2022/02/02 11:33:14;;;;;;;;;5.33;5.33;;;;;11.49;79.65;102068.59;5100419;27;46231;-80
2022/02/02 11:38:23;;;;;;;;;5.67;4.33;;;;;11.42;79.30;102038.25;5102095;27;45234;-80
2022/02/02 11:43:52;;;;;;;;;2.67;2.33;;;;;11.55;79.04;102053.03;5101554;27;45270;-83
2022/02/02 11:46:39;;;;;;;;;3.00;3.00;;;;;11.54;78.78;102057.50;5102078;27;45287;-82
2022/02/02 11:49:13;;;;;;;;;4.67;4.33;;;;;11.45;78.89;102043.28;5102137;27;45324;-81
2022/02/02 11:51:43;;;;;;;;;6.00;6.00;;;;;11.55;79.93;102056.53;5100695;27;45371;-82
2022/02/02 11:54:11;;;;;;;;;6.00;6.00;;;;;11.49;79.40;102041.97;5100689;27;45515;-84
2022/02/02 11:57:03;;;;;;;;;5.00;5.00;;;;;11.57;79.41;102054.56;5102104;27;45405;-81
2022/02/02 11:59:53;;;;;;;;;5.00;5.00;;;;;11.60;79.27;102048.94;5101942;27;45409;-84
2022/02/02 12:02:48;;;;;;;;;7.00;7.00;;;;;11.66;80.00;102054.63;5100605;27;45425;-80
2022/02/02 12:05:26;;;;;;;;;7.00;6.33;;;;;11.64;79.34;102054.78;5079053;27;45330;-81
2022/02/02 12:08:05;;;;;;;;;9.67;8.00;;;;;11.64;79.36;102056.63;5060978;28;45394;-82
2022/02/02 12:10:41;;;;;;;;;11.00;8.67;;;;;11.66;79.62;102051.97;5060835;28;45299;-83
2022/02/02 12:35:55;;;;;;;;;7.33;7.33;;;;;11.77;79.26;102040.28;5062114;28;45205;-82
2022/02/02 12:57:44;;;;;;;;;10.67;10.67;;;;;11.83;78.59;102013.88;5064323;28;45415;-84
2022/02/02 13:00:14;;;;;;;;;13.33;12.67;;;;;12.02;78.87;102038.72;5085940;27;45565;-84
2022/02/02 13:02:42;;;;;;;;;10.33;10.33;;;;;12.00;78.67;102022.88;5075182;28;46156;-82
2022/02/02 13:05:09;;;;;;;;;10.33;10.33;;;;;12.06;78.73;102034.75;5075233;28;45739;-83
2022/02/02 13:07:41;;;;;;;;;7.67;7.67;;;;;11.96;78.18;102016.19;5073553;28;45386;-83
2022/02/02 13:10:08;;;;;;;;;8.33;8.33;;;;;12.03;78.64;102018.22;5080565;28;46448;-84
2022/02/02 13:12:41;;;;;;;;;8.00;8.00;;;;;11.97;78.36;102001.84;5083281;27;45234;-90
2022/02/02 13:15:58;;;;;;;;;8.67;7.33;;;;;12.05;78.14;102010.91;5084340;28;45395;-85
2022/02/02 13:18:32;;;;;;;;;5.33;5.33;;;;;12.05;78.02;102016.25;5081111;28;45180;-88
2022/02/02 13:23:38;;;;;;;;;10.00;9.00;;;;;12.05;78.26;102021.56;5085540;27;45269;-83
2022/02/02 13:26:11;;;;;;;;;9.00;8.00;;;;;11.99;77.84;102018.53;5082796;28;45399;-89
2022/02/02 13:28:49;;;;;;;;;5.00;5.00;;;;;12.05;78.04;102027.75;5081441;27;45230;-84
2022/02/02 13:31:32;;;;;;;;;6.00;6.00;;;;;12.02;77.80;102030.72;5082379;27;45299;-86
2022/02/02 13:34:06;;;;;;;;;6.00;5.67;;;;;11.95;77.72;102022.50;5081748;28;45464;-86
2022/02/02 13:53:50;;;;;;;;;9.67;8.00;;;;;11.76;77.45;102038.63;5081227;28;45191;-85
2022/02/02 13:56:30;;;;;;;;;7.00;7.00;;;;;11.65;77.87;102032.53;5081646;28;46387;-85
2022/02/02 14:01:43;;;;;;;;;7.00;7.00;;;;;11.67;77.87;102043.03;5083991;27;45364;-83
2022/02/02 14:07:09;;;;;;;;;3.33;3.33;;;;;11.57;77.35;102024.41;5083944;27;45373;-79
2022/02/02 14:33:32;;;;;;;;;3.33;3.00;;;;;11.85;75.57;102019.03;5104836;27;45330;-79
2022/02/02 14:36:01;;;;;;;;;7.00;6.00;;;;;11.72;74.88;102003.44;5102891;27;46234;-79
2022/02/02 14:38:34;;;;;;;;;5.00;5.00;;;;;11.76;75.74;102010.13;5104330;27;45271;-79
2022/02/02 14:41:28;;;;;;;;;6.00;5.00;;;;;11.85;75.72;102022.56;5103587;27;45456;-79
2022/02/02 14:44:05;;;;;;;;;10.00;7.00;;;;;11.86;76.10;102028.72;5104238;27;45307;-79
2022/02/02 14:46:39;;;;;;;;;6.33;6.33;;;;;11.83;75.96;102024.53;5104529;27;45202;-79
2022/02/02 14:49:17;;;;;;;;;5.33;5.33;;;;;11.87;75.27;102036.56;5103938;27;48285;-79
2022/02/02 14:51:59;;;;;;;;;6.00;6.00;;;;;11.78;75.93;102026.81;5105011;27;45232;-79
2022/02/02 14:55:34;;;;;;;;;3.67;3.67;;;;;11.90;76.17;102040.75;5104074;27;45278;-79
2022/02/02 15:25:02;;;;;;;;;3.67;3.67;;;;;11.72;74.99;102048.72;5084378;28;45239;-79
2022/02/02 15:32:17;;;;;;;;;2.00;2.00;;;;;11.56;74.91;102052.91;5084404;27;45245;-78
2022/02/02 15:37:23;;;;;;;;;5.00;5.00;;;;;11.55;75.15;102053.84;5081609;27;45456;-78
2022/02/02 15:57:21;;;;;;;;;4.67;4.67;;;;;11.54;74.63;102032.69;5073547;28;45175;-79
2022/02/02 15:59:26;;;;;;;;;4.33;4.00;;;;;11.45;74.99;102010.47;5081609;28;45468;-76
2022/02/02 16:04:23;;;;;;;;;8.00;8.00;;;;;11.54;75.05;102035.38;5084875;27;45298;-80
2022/02/02 16:06:50;;;;;;;;;6.67;6.67;;;;;11.35;74.32;102000.72;5081722;28;45454;-80
2022/02/02 16:11:46;;;;;;;;;6.33;6.33;;;;;11.43;74.94;102013.28;5081248;27;45326;-80
2022/02/02 16:14:22;;;;;;;;;9.00;9.00;;;;;11.48;75.28;102019.00;5080161;28;47171;-79
2022/02/02 16:19:28;;;;;;;;;7.00;7.00;;;;;11.43;75.20;102007.97;5099537;27;45303;-78
2022/02/02 16:25:06;;;;;;;;;4.00;4.00;;;;;11.50;75.06;102010.88;5068093;28;45291;-78
2022/02/02 16:33:54;;;;;;;;;5.00;3.67;;;;;11.48;75.50;102005.72;5072614;28;45329;-79
2022/02/02 16:36:01;;;;;;;;;4.33;4.33;;;;;11.45;75.32;102005.16;5071285;28;45466;-78
2022/02/02 16:38:31;;;;;;;;;2.67;2.67;;;;;11.45;75.10;102013.13;5068522;28;45493;-77
2022/02/02 16:40:58;;;;;;;;;5.00;5.00;;;;;11.40;75.36;102002.94;5078717;27;45239;-77
2022/02/02 16:43:23;;;;;;;;;3.67;3.00;;;;;11.46;75.56;102007.66;5088712;27;46973;-78
2022/02/02 16:45:53;;;;;;;;;5.00;3.33;;;;;11.47;75.75;102003.19;5071893;27;47193;-78
2022/02/02 16:48:20;;;;;;;;;2.00;2.00;;;;;11.45;75.44;101995.34;5072395;28;46730;-78
2022/02/02 16:50:51;;;;;;;;;3.67;3.67;;;;;11.45;75.30;101989.19;5075052;28;45414;-77
2022/02/02 16:55:53;;;;;;;;;6.00;5.00;;;;;11.30;75.51;101963.06;5071581;27;45738;-77
2022/02/02 17:31:32;;;;;;;;;5.00;5.00;;;;;11.15;76.01;101993.81;5079216;28;45373;-79
2022/02/02 17:34:06;;;;;;;;;6.00;6.00;;;;;11.10;75.64;101983.63;5078707;28;45260;-79
2022/02/02 17:36:41;;;;;;;;;6.00;5.00;;;;;11.13;75.85;101998.47;5079943;27;45225;-78
2022/02/02 17:39:13;;;;;;;;;6.00;6.00;;;;;11.11;77.41;101998.63;5079091;28;47439;-79
2022/02/02 18:01:02;;;;;;;;;10.00;10.00;;;;;11.18;76.24;102020.13;5079479;27;45388;-78
2022/02/02 18:18:02;;;;;;;;;13.00;13.00;;;;;11.15;76.33;102021.28;5079627;27;45391;-80
2022/02/02 18:22:44;;;;;;;;;15.00;12.00;;;;;11.18;75.65;102017.47;5057518;28;46606;-79
2022/02/02 18:27:47;;;;;;;;;14.33;13.33;;;;;11.07;75.65;102007.84;5058642;28;45498;-79
2022/02/02 18:30:24;;;;;;;;;11.00;10.00;;;;;11.06;75.78;102011.50;5057532;28;46598;-79
2022/02/02 18:33:08;;;;;;;;;11.33;10.33;;;;;11.11;75.67;102015.41;5057410;28;48053;-78
2022/02/02 18:35:40;;;;;;;;;17.00;15.67;;;;;10.99;75.44;101998.78;5058766;28;45327;-79
2022/02/02 18:56:33;;;;;;;;;8.33;8.33;;;;;10.89;74.90;101987.34;5072342;28;45320;-81
2022/02/02 20:03:53;;;;;;;;;7.67;7.67;;;;;10.72;74.11;102018.19;5072428;28;46293;-79
2022/02/02 20:11:08;;;;;;;;;5.67;5.00;;;;;10.69;74.16;102016.66;5070607;28;45512;-79
2022/02/02 20:13:38;;;;;;;;;7.67;7.67;;;;;10.62;74.66;101983.63;5070382;27;45275;-78
2022/02/02 20:16:05;;;;;;;;;7.00;7.00;;;;;10.69;74.89;101986.56;5069079;28;45636;-78
2022/02/02 20:18:35;;;;;;;;;6.00;6.00;;;;;10.73;74.36;102002.09;5071274;27;46525;-78
2022/02/02 20:21:05;;;;;;;;;8.67;8.67;;;;;10.73;73.66;102004.75;5064125;28;45512;-78
2022/02/02 20:23:30;;;;;;;;;6.33;6.33;;;;;10.67;74.25;101996.50;5070626;27;45377;-78
2022/02/02 20:25:56;;;;;;;;;8.67;7.00;;;;;10.56;74.61;101978.91;5071309;28;45482;-78
2022/02/02 20:28:21;;;;;;;;;9.00;9.00;;;;;10.73;74.47;102011.91;5071473;28;45396;-79
2022/02/02 20:30:47;;;;;;;;;9.33;9.00;;;;;10.72;74.58;102015.53;5071850;28;45357;-78
2022/02/02 20:33:13;;;;;;;;;9.00;8.33;;;;;10.63;74.02;101997.78;5069848;28;45355;-79
2022/02/02 20:35:39;;;;;;;;;8.67;8.67;;;;;10.70;74.36;102018.34;5063421;27;45501;-83
2022/02/02 20:38:04;;;;;;;;;9.67;9.67;;;;;10.56;74.46;101993.03;5070722;28;46070;-79
2022/02/02 20:40:30;;;;;;;;;9.00;9.00;;;;;10.71;74.06;102020.00;5069636;27;45177;-78
2022/02/02 20:45:57;;;;;;;;;10.33;9.33;;;;;10.72;74.34;102026.19;5072960;27;45439;-78
2022/02/02 21:03:12;;;;;;;;;12.67;11.33;;;;;10.57;74.48;102026.59;5073626;28;45342;-79
2022/02/02 21:04:54;;;;;;;;;9.67;9.67;;;;;10.57;74.57;102018.63;5071276;28;45400;-81
2022/02/02 21:07:28;;;;;;;;;9.00;9.00;;;;;10.56;74.12;102016.13;5077418;28;45236;-80
2022/02/02 21:10:06;;;;;;;;;11.67;9.67;;;;;10.58;74.29;102014.16;5079484;27;46182;-79
2022/02/02 21:15:23;;;;;;;;;10.00;10.00;;;;;10.60;73.92;102026.31;5080451;28;45235;-79
2022/02/02 21:17:51;;;;;;;;;10.67;10.67;;;;;10.56;73.64;102032.06;5085965;27;45420;-79
2022/02/02 21:20:22;;;;;;;;;8.33;8.00;;;;;10.46;73.99;102003.69;5099170;27;47087;-79
2022/02/02 21:22:55;;;;;;;;;10.67;9.67;;;;;10.54;74.29;102026.88;5099263;27;45626;-79
2022/02/02 21:27:57;;;;;;;;;9.33;9.33;;;;;10.40;73.80;102014.88;5100235;27;45322;-79
2022/02/02 21:30:23;;;;;;;;;12.00;11.33;;;;;10.48;73.39;102025.63;5099226;27;47519;-79
2022/02/02 21:32:49;;;;;;;;;11.00;9.33;;;;;10.46;73.70;102027.63;5099201;27;45615;-79
2022/02/02 21:35:17;;;;;;;;;9.00;9.00;;;;;10.41;73.18;102016.53;5100509;27;45445;-80
2022/02/02 21:37:45;;;;;;;;;8.67;7.67;;;;;10.30;74.04;102001.56;5099051;27;47082;-79
2022/02/02 21:40:21;;;;;;;;;8.33;7.67;;;;;10.45;73.83;102025.06;5100122;27;45384;-79
2022/02/02 21:42:48;;;;;;;;;10.33;9.00;;;;;10.43;73.32;102011.06;5100538;27;45293;-79
2022/02/02 21:45:15;;;;;;;;;5.33;5.33;;;;;10.26;72.65;101991.38;5100500;27;45336;-79
2022/02/02 21:47:41;;;;;;;;;5.67;5.67;;;;;10.39;73.00;102009.69;5100426;27;45302;-79
2022/02/02 21:50:16;;;;;;;;;8.00;8.00;;;;;10.42;73.68;102009.41;5098521;27;48331;-79
2022/02/02 21:52:42;;;;;;;;;9.00;9.00;;;;;10.39;73.89;102005.22;5100373;27;45202;-79
2022/02/02 21:55:08;;;;;;;;;9.33;9.33;;;;;10.41;74.07;101999.72;5100388;27;45314;-79
2022/02/02 21:57:34;;;;;;;;;8.67;7.67;;;;;10.37;73.79;101991.22;5098916;27;46756;-79
2022/02/02 22:00:02;;;;;;;;;8.00;8.00;;;;;10.41;73.65;101994.41;5100093;27;46174;-79
2022/02/02 22:02:32;;;;;;;;;8.00;7.67;;;;;10.43;73.89;101995.13;5100104;27;45356;-79
2022/02/02 22:04:57;;;;;;;;;8.67;8.67;;;;;10.44;73.52;102002.13;5100230;27;45306;-79
2022/02/02 22:07:23;;;;;;;;;10.00;7.67;;;;;10.30;73.70;101976.84;5098651;27;45947;-79
2022/02/02 22:09:53;;;;;;;;;8.00;7.33;;;;;10.33;73.76;101980.03;5100040;27;45228;-79
2022/02/02 22:12:18;;;;;;;;;8.00;7.67;;;;;10.41;74.10;101994.41;5100153;27;45361;-79
2022/02/02 22:14:46;;;;;;;;;8.00;7.67;;;;;10.35;74.08;101991.38;5100377;27;45762;-79
2022/02/02 22:17:11;;;;;;;;;8.33;8.33;;;;;10.39;73.94;101983.97;5098694;27;47160;-79
2022/02/02 22:19:37;;;;;;;;;6.00;6.00;;;;;10.43;74.48;101995.97;5081266;28;47364;-79
2022/02/02 22:22:03;;;;;;;;;7.00;7.00;;;;;10.27;74.42;101972.66;5083197;27;45231;-79
2022/02/02 22:24:28;;;;;;;;;8.00;8.00;;;;;10.35;74.56;101978.06;5081743;28;45239;-79
2022/02/02 22:26:53;;;;;;;;;6.00;6.00;;;;;10.29;74.81;101967.16;5082842;27;45238;-79